CMA CGM Platon — 2ACH6 — position and weather

sailwx.info

Track history (hours):
 
Tides and Currents Weather Stations Pressure Air Temp Water Temp Dewpoint Dewpoint Depression Visibility Wind Speed Wind Dir Waves Ship Positions

CMA CGM Platon

Last reported at 2017-Nov-11 01:46 UTC. Time now 2017-Nov-17 19:44 UTC.
Position N 21°59' W 018°00'.

Length 170 m; draft 8.3 m.

Type: Ship (hazmat cat A). MMSI: 235058584.

Date/timePositionNaut miles runAvg speedWind from/ knotsBaromVisibWave heightAir tempDewpointWater temp
2017-Nov-11 01:46N 21°59' W 018°00'1118.4
2017-Nov-11 01:12N 22°10' W 018°00'16618.4
2017-Nov-10 16:08N 24°41' W 016°45'319.3
2017-Nov-10 16:00N 24°43' W 016°43'1019.8
2017-Nov-10 15:31N 24°52' W 016°38'1019.0
2017-Nov-10 15:00N 25°00' W 016°33'918.8
2017-Nov-10 14:30N 25°08' W 016°28'1019.0
2017-Nov-10 14:00N 25°17' W 016°23'1019.4
2017-Nov-10 13:31N 25°25' W 016°17'2719.1
2017-Nov-10 12:06N 25°46' W 015°59'519.3
2017-Nov-10 11:51N 25°50' W 015°55'719.3
2017-Nov-10 11:31N 25°54' W 015°50'1019.4
2017-Nov-10 11:00N 26°02' W 015°43'10018.9
2017-Nov-10 05:44N 27°15' W 014°27'419.4
2017-Nov-10 05:31N 27°19' W 014°24'1319.6
2017-Nov-10 04:52N 27°29' W 014°16'719.4
2017-Nov-10 04:30N 27°33' W 014°10'1019.4
2017-Nov-10 04:00N 27°40' W 014°02'1019.2
2017-Nov-10 03:31N 27°47' W 013°55'1019.0
2017-Nov-10 03:00N 27°54' W 013°47'918.7
2017-Nov-10 02:30N 28°01' W 013°40'1018.6
2017-Nov-10 01:59N 28°08' W 013°34'1218.4
2017-Nov-10 01:20N 28°18' W 013°25'718.7
2017-Nov-10 00:58N 28°24' W 013°20'1119.3
2017-Nov-10 00:22N 28°33' W 013°13'719.4
2017-Nov-10 00:01N 28°39' W 013°08'1019.1
2017-Nov-09 23:30N 28°46' W 013°02'1018.8
2017-Nov-09 22:57N 28°55' W 012°55'818.6
2017-Nov-09 22:30N 29°02' W 012°50'918.6
2017-Nov-09 22:00N 29°09' W 012°43'1018.7
2017-Nov-09 21:29N 29°17' W 012°37'918.9
2017-Nov-09 21:00N 29°25' W 012°31'1019.0
2017-Nov-09 20:30N 29°32' W 012°25'3819.2
2017-Nov-09 18:33N 30°03' W 011°60'119.1
2017-Nov-09 18:30N 30°04' W 011°59'1019.2
2017-Nov-09 17:59N 30°12' W 011°53'919.2
2017-Nov-09 17:30N 30°19' W 011°46'2318.8
2017-Nov-09 16:16N 30°38' W 011°31'518.5
2017-Nov-09 16:00N 30°42' W 011°27'918.6
2017-Nov-09 15:31N 30°50' W 011°21'6418.6
2017-Nov-09 12:03N 31°42' W 010°38'418.3
2017-Nov-09 11:50N 31°46' W 010°35'6918.7
2017-Nov-09 08:08N 32°42' W 009°48'218.8
2017-Nov-09 08:01N 32°44' W 009°46'918.8
2017-Nov-09 07:31N 32°52' W 009°40'919.0
2017-Nov-09 07:00N 32°59' W 009°32'918.9
2017-Nov-09 06:31N 33°06' W 009°25'918.9
2017-Nov-09 06:01N 33°12' W 009°17'919.0
2017-Nov-09 05:31N 33°19' W 009°09'1118.8
2017-Nov-09 04:57N 33°27' W 008°60'15219.0
2017-Nov-08 20:57N 35°15' W 006°51'87 2.9
2017-Nov-07 15:12N 36°08' W 005°25'0 0.0
2017-Nov-07 14:51N 36°08' W 005°25'0 0.0
2017-Nov-07 14:24N 36°08' W 005°25'0 0.0
2017-Nov-07 14:00N 36°08' W 005°25'0 0.8
2017-Nov-07 13:30N 36°08' W 005°25'2 3.0
2017-Nov-07 13:00N 36°07' W 005°24'3 5.2
2017-Nov-07 12:30N 36°05' W 005°22'4 7.1
2017-Nov-07 12:00N 36°04' W 005°18'0 0.8
2017-Nov-07 11:30N 36°04' W 005°18'0 0.7
2017-Nov-07 11:00N 36°04' W 005°19'1 1.4
2017-Nov-07 10:30N 36°04' W 005°19'1 2.2
2017-Nov-07 10:00N 36°03' W 005°21'1 2.6
2017-Nov-07 09:30N 36°03' W 005°22'4 7.8
2017-Nov-07 09:00N 35°59' W 005°23'612.3
2017-Nov-07 08:30N 35°57' W 005°30'  
2017-Nov-04 20:36N 28°53' W 012°57'518.4
2017-Nov-04 20:21N 28°49' W 012°60'618.5
2017-Nov-04 20:00N 28°44' W 013°04'918.4
2017-Nov-04 19:30N 28°36' W 013°10'918.4
2017-Nov-04 19:00N 28°29' W 013°16'2217.4
2017-Nov-04 17:44N 28°11' W 013°31'416.0
2017-Nov-04 17:31N 28°08' W 013°33'  
Track history (hours):
 
Tides and Currents Weather Stations Pressure Air Temp Water Temp Dewpoint Dewpoint Depression Visibility Wind Speed Wind Dir Waves Ship Positions

CMA CGM Platon

Last reported at 2017-Nov-11 01:46 UTC. Time now 2017-Nov-17 19:44 UTC.
Position N 21°59' W 018°00'.

Length 170 m; draft 8.3 m.

Type: Ship (hazmat cat A). MMSI: 235058584.

Date/timePositionNaut miles runAvg speedWind from/ knotsBaromVisibWave heightAir tempDewpointWater temp
2017-Nov-11 01:46N 21°59' W 018°00'1118.4
2017-Nov-11 01:12N 22°10' W 018°00'16618.4
2017-Nov-10 16:08N 24°41' W 016°45'319.3
2017-Nov-10 16:00N 24°43' W 016°43'1019.8
2017-Nov-10 15:31N 24°52' W 016°38'1019.0
2017-Nov-10 15:00N 25°00' W 016°33'918.8
2017-Nov-10 14:30N 25°08' W 016°28'1019.0
2017-Nov-10 14:00N 25°17' W 016°23'1019.4
2017-Nov-10 13:31N 25°25' W 016°17'2719.1
2017-Nov-10 12:06N 25°46' W 015°59'519.3
2017-Nov-10 11:51N 25°50' W 015°55'719.3
2017-Nov-10 11:31N 25°54' W 015°50'1019.4
2017-Nov-10 11:00N 26°02' W 015°43'10018.9
2017-Nov-10 05:44N 27°15' W 014°27'419.4
2017-Nov-10 05:31N 27°19' W 014°24'1319.6
2017-Nov-10 04:52N 27°29' W 014°16'719.4
2017-Nov-10 04:30N 27°33' W 014°10'1019.4
2017-Nov-10 04:00N 27°40' W 014°02'1019.2
2017-Nov-10 03:31N 27°47' W 013°55'1019.0
2017-Nov-10 03:00N 27°54' W 013°47'918.7
2017-Nov-10 02:30N 28°01' W 013°40'1018.6
2017-Nov-10 01:59N 28°08' W 013°34'1218.4
2017-Nov-10 01:20N 28°18' W 013°25'718.7
2017-Nov-10 00:58N 28°24' W 013°20'1119.3
2017-Nov-10 00:22N 28°33' W 013°13'719.4
2017-Nov-10 00:01N 28°39' W 013°08'1019.1
2017-Nov-09 23:30N 28°46' W 013°02'1018.8
2017-Nov-09 22:57N 28°55' W 012°55'818.6
2017-Nov-09 22:30N 29°02' W 012°50'918.6
2017-Nov-09 22:00N 29°09' W 012°43'1018.7
2017-Nov-09 21:29N 29°17' W 012°37'918.9
2017-Nov-09 21:00N 29°25' W 012°31'1019.0
2017-Nov-09 20:30N 29°32' W 012°25'3819.2
2017-Nov-09 18:33N 30°03' W 011°60'119.1
2017-Nov-09 18:30N 30°04' W 011°59'1019.2
2017-Nov-09 17:59N 30°12' W 011°53'919.2
2017-Nov-09 17:30N 30°19' W 011°46'2318.8
2017-Nov-09 16:16N 30°38' W 011°31'518.5
2017-Nov-09 16:00N 30°42' W 011°27'918.6
2017-Nov-09 15:31N 30°50' W 011°21'6418.6
2017-Nov-09 12:03N 31°42' W 010°38'418.3
2017-Nov-09 11:50N 31°46' W 010°35'6918.7
2017-Nov-09 08:08N 32°42' W 009°48'218.8
2017-Nov-09 08:01N 32°44' W 009°46'918.8
2017-Nov-09 07:31N 32°52' W 009°40'919.0
2017-Nov-09 07:00N 32°59' W 009°32'918.9
2017-Nov-09 06:31N 33°06' W 009°25'918.9
2017-Nov-09 06:01N 33°12' W 009°17'919.0
2017-Nov-09 05:31N 33°19' W 009°09'1118.8
2017-Nov-09 04:57N 33°27' W 008°60'15219.0
2017-Nov-08 20:57N 35°15' W 006°51'87 2.9
2017-Nov-07 15:12N 36°08' W 005°25'0 0.0
2017-Nov-07 14:51N 36°08' W 005°25'0 0.0
2017-Nov-07 14:24N 36°08' W 005°25'0 0.0
2017-Nov-07 14:00N 36°08' W 005°25'0 0.8
2017-Nov-07 13:30N 36°08' W 005°25'2 3.0
2017-Nov-07 13:00N 36°07' W 005°24'3 5.2
2017-Nov-07 12:30N 36°05' W 005°22'4 7.1
2017-Nov-07 12:00N 36°04' W 005°18'0 0.8
2017-Nov-07 11:30N 36°04' W 005°18'0 0.7
2017-Nov-07 11:00N 36°04' W 005°19'1 1.4
2017-Nov-07 10:30N 36°04' W 005°19'1 2.2
2017-Nov-07 10:00N 36°03' W 005°21'1 2.6
2017-Nov-07 09:30N 36°03' W 005°22'4 7.8
2017-Nov-07 09:00N 35°59' W 005°23'612.3
2017-Nov-07 08:30N 35°57' W 005°30'  
2017-Nov-04 20:36N 28°53' W 012°57'518.4
2017-Nov-04 20:21N 28°49' W 012°60'618.5
2017-Nov-04 20:00N 28°44' W 013°04'918.4
2017-Nov-04 19:30N 28°36' W 013°10'918.4
2017-Nov-04 19:00N 28°29' W 013°16'2217.4
2017-Nov-04 17:44N 28°11' W 013°31'416.0
2017-Nov-04 17:31N 28°08' W 013°33'  

Dump ship's entire track history